Friday, January 19, 2018, 10:35 AM EST
Back to Local

KUUU, Newport State Airport

Location: Middletown, RI, United States Lat: 41.533
Local Time: 10:35 AM EST (15:35 GMT) Lon: -71.283
Time Zone: US/Eastern Elev: 170 ft

Show me the last for .
Show Coded

Time T Td Feel RH Dir Speed Gust Alt SLP Vis Weather Sky Remarks
2018-01-19 09:53 28 17 21 62 290° 7 - 30.01 30.01 10 CLR None
2018-01-19 08:53 26 16 17 65 270° 9 - 30.01 30.01 10 CLR None
2018-01-19 07:53 23 16 17 74 280° 5 - 29.99 30.00 10 CLR None
2018-01-19 06:53 22 16 14 77 280° 6 - 29.98 29.98 10 CLR 6-hr Min Temp (7am): 21.0°F
6-hr Max Temp (7am): 23.0°F
2018-01-19 05:53 23 17 16 77 280° 6 - 29.98 29.98 10 CLR None
2018-01-19 04:53 22 16 16 77 310° 5 - 29.98 29.98 10 CLR None
2018-01-19 03:53 22 15 14 74 310° 6 - 29.96 29.96 10 CLR None
2018-01-19 02:53 23 16 15 74 300° 7 - 29.96 29.96 10 CLR None
2018-01-19 01:53 23 16 14 74 310° 8 - 29.96 29.96 10 CLR None
2018-01-19 00:53 23 16 13 74 290° 9 - 29.95 29.95 10 CLR 6-hr Min Temp (1am): 23.0°F
6-hr Max Temp (1am): 27.0°F
2018-01-18 23:53 24 16 10 70 310° 12 18 29.96 29.96 10 CLR 24-hr Min Temp (12am): 19.9°F
24-hr Max Temp (12am): 34.0°F
2018-01-18 22:53 25 16 13 68 300° 14 - 29.96 29.96 10 CLR None
2018-01-18 21:53 26 17 15 68 300° 13 - 29.95 29.96 10 CLR None
2018-01-18 20:53 26 18 15 70 300° 13 - 29.94 29.95 10 CLR None
2018-01-18 19:53 27 18 17 68 310° 12 - 29.93 29.93 10 CLR None
2018-01-18 18:53 27 17 14 65 310° 13 20 29.91 29.91 10 CLR 6-hr Min Temp (7pm): 27.0°F
6-hr Max Temp (7pm): 34.0°F
2018-01-18 17:53 28 17 15 62 320° 10 20 29.89 29.89 10 CLR None
2018-01-18 16:53 29 16 20 57 320° 10 - 29.88 29.88 10 CLR None
2018-01-18 15:53 31 17 23 55 350° 8 - 29.84 29.85 10 CLR None
2018-01-18 14:53 33 17 22 51 340° 8 18 29.82 29.82 10 CLR None
2018-01-18 13:53 33 17 24 51 330° 12 - 29.83 29.83 10 CLR None
2018-01-18 12:53 33 17 21 51 340° 16 22 29.84 29.84 10 CLR 6-hr Min Temp (1pm): 19.9°F
6-hr Max Temp (1pm): 33.1°F
2018-01-18 11:53 30 17 19 58 330° 16 - 29.88 29.88 10 CLR None
2018-01-18 10:53 27 15 18 60 310° 9 - 29.94 29.94 10 CLR None

Support USWX by starting your Amazon purchase here.